sensor_id;sensor_type;location;lat;lon;timestamp;pressure;altitude;pressure_sealevel;temperature;humidity
43741;BME280;29352;48.708;9.290;2023-02-28T00:01:30;98486.56;;;-9.90;63.07
43741;BME280;29352;48.708;9.290;2023-02-28T00:03:56;98485.63;;;-9.70;62.63
43741;BME280;29352;48.708;9.290;2023-02-28T00:06:22;98493.16;;;-9.83;63.37
43741;BME280;29352;48.708;9.290;2023-02-28T00:08:49;98492.44;;;-9.69;63.14
43741;BME280;29352;48.708;9.290;2023-02-28T00:11:15;98485.59;;;-9.87;63.41
43741;BME280;29352;48.708;9.290;2023-02-28T00:13:44;98487.19;;;-9.85;63.91
43741;BME280;29352;48.708;9.290;2023-02-28T00:16:16;98493.56;;;-9.92;64.08
43741;BME280;29352;48.708;9.290;2023-02-28T00:18:43;98488.13;;;-9.86;63.60
43741;BME280;29352;48.708;9.290;2023-02-28T00:21:09;98489.34;;;-9.75;63.62
43741;BME280;29352;48.708;9.290;2023-02-28T00:23:35;98489.16;;;-9.90;63.27
43741;BME280;29352;48.708;9.290;2023-02-28T00:26:01;98489.38;;;-9.94;63.90
43741;BME280;29352;48.708;9.290;2023-02-28T00:28:27;98485.03;;;-9.94;63.72
43741;BME280;29352;48.708;9.290;2023-02-28T00:30:53;98483.69;;;-9.84;64.00
43741;BME280;29352;48.708;9.290;2023-02-28T00:33:19;98483.50;;;-9.79;63.20
43741;BME280;29352;48.708;9.290;2023-02-28T00:35:44;98488.19;;;-9.87;63.86
43741;BME280;29352;48.708;9.290;2023-02-28T00:38:12;98487.22;;;-9.67;63.35
43741;BME280;29352;48.708;9.290;2023-02-28T00:40:38;98491.59;;;-9.87;63.82
43741;BME280;29352;48.708;9.290;2023-02-28T00:43:04;98487.91;;;-9.64;62.87
43741;BME280;29352;48.708;9.290;2023-02-28T00:45:29;98485.84;;;-10.11;63.90
43741;BME280;29352;48.708;9.290;2023-02-28T00:47:55;98488.66;;;-9.79;64.21
43741;BME280;29352;48.708;9.290;2023-02-28T00:50:20;98487.59;;;-9.75;63.73
43741;BME280;29352;48.708;9.290;2023-02-28T00:52:47;98490.16;;;-9.92;63.80
43741;BME280;29352;48.708;9.290;2023-02-28T00:55:13;98485.72;;;-9.90;63.88
43741;BME280;29352;48.708;9.290;2023-02-28T00:57:39;98488.25;;;-9.89;63.55
43741;BME280;29352;48.708;9.290;2023-02-28T01:00:05;98485.84;;;-9.74;63.98
43741;BME280;29352;48.708;9.290;2023-02-28T01:02:32;98481.34;;;-9.88;63.77
43741;BME280;29352;48.708;9.290;2023-02-28T01:04:58;98481.69;;;-9.60;63.19
43741;BME280;29352;48.708;9.290;2023-02-28T01:07:23;98488.13;;;-9.86;64.13
43741;BME280;29352;48.708;9.290;2023-02-28T01:09:49;98476.81;;;-9.66;63.70
43741;BME280;29352;48.708;9.290;2023-02-28T01:12:14;98482.03;;;-9.85;63.90
43741;BME280;29352;48.708;9.290;2023-02-28T01:14:40;98478.47;;;-9.82;64.04
43741;BME280;29352;48.708;9.290;2023-02-28T01:17:06;98484.22;;;-9.58;63.42
43741;BME280;29352;48.708;9.290;2023-02-28T01:19:32;98480.44;;;-9.87;64.27
43741;BME280;29352;48.708;9.290;2023-02-28T01:22:03;98482.03;;;-9.85;64.71
43741;BME280;29352;48.708;9.290;2023-02-28T01:24:31;98480.00;;;-9.78;64.20
43741;BME280;29352;48.708;9.290;2023-02-28T01:26:57;98476.78;;;-9.83;64.86
43741;BME280;29352;48.708;9.290;2023-02-28T01:29:22;98475.00;;;-9.64;64.11
43741;BME280;29352;48.708;9.290;2023-02-28T01:31:48;98477.50;;;-9.62;64.16
43741;BME280;29352;48.708;9.290;2023-02-28T01:34:13;98475.97;;;-9.49;64.25
43741;BME280;29352;48.708;9.290;2023-02-28T01:36:39;98475.91;;;-9.65;64.95
43741;BME280;29352;48.708;9.290;2023-02-28T01:39:04;98478.16;;;-9.76;65.34
43741;BME280;29352;48.708;9.290;2023-02-28T01:41:32;98471.06;;;-9.90;65.93
43741;BME280;29352;48.708;9.290;2023-02-28T01:47:09;98474.34;;;-9.86;65.56
43741;BME280;29352;48.708;9.290;2023-02-28T01:49:35;98472.06;;;-9.92;66.53
43741;BME280;29352;48.708;9.290;2023-02-28T01:52:02;98468.56;;;-9.91;66.24
43741;BME280;29352;48.708;9.290;2023-02-28T01:54:31;98468.44;;;-9.88;66.50
43741;BME280;29352;48.708;9.290;2023-02-28T01:57:06;98460.75;;;-9.72;66.18
43741;BME280;29352;48.708;9.290;2023-02-28T01:59:58;98467.19;;;-9.98;66.77
43741;BME280;29352;48.708;9.290;2023-02-28T02:02:30;98457.34;;;-9.73;66.16
43741;BME280;29352;48.708;9.290;2023-02-28T02:05:02;98452.94;;;-9.88;66.80
43741;BME280;29352;48.708;9.290;2023-02-28T02:07:38;98453.06;;;-9.91;66.60
43741;BME280;29352;48.708;9.290;2023-02-28T02:10:14;98456.81;;;-10.16;67.26
43741;BME280;29352;48.708;9.290;2023-02-28T02:13:14;98452.69;;;-9.84;66.93
43741;BME280;29352;48.708;9.290;2023-02-28T02:18:55;98445.31;;;-9.91;66.61
43741;BME280;29352;48.708;9.290;2023-02-28T02:36:21;98433.66;;;-9.46;66.28
43741;BME280;29352;48.708;9.290;2023-02-28T02:39:06;98431.81;;;-9.44;66.49
43741;BME280;29352;48.708;9.290;2023-02-28T02:41:53;98429.38;;;-9.30;66.52
43741;BME280;29352;48.708;9.290;2023-02-28T02:44:36;98432.81;;;-9.47;66.36
43741;BME280;29352;48.708;9.290;2023-02-28T02:47:20;98435.69;;;-9.36;66.48
43741;BME280;29352;48.708;9.290;2023-02-28T02:49:53;98433.94;;;-9.70;66.81
43741;BME280;29352;48.708;9.290;2023-02-28T02:52:30;98434.19;;;-9.57;66.84
43741;BME280;29352;48.708;9.290;2023-02-28T02:55:03;98430.13;;;-9.45;66.86
43741;BME280;29352;48.708;9.290;2023-02-28T02:57:45;98427.34;;;-9.58;67.30
43741;BME280;29352;48.708;9.290;2023-02-28T03:00:20;98432.56;;;-9.42;67.23
43741;BME280;29352;48.708;9.290;2023-02-28T03:02:54;98431.81;;;-9.44;67.32
43741;BME280;29352;48.708;9.290;2023-02-28T03:05:29;98432.53;;;-9.58;67.25
43741;BME280;29352;48.708;9.290;2023-02-28T03:08:03;98437.44;;;-9.54;67.39
43741;BME280;29352;48.708;9.290;2023-02-28T03:10:42;98441.53;;;-9.49;67.09
43741;BME280;29352;48.708;9.290;2023-02-28T03:16:23;98444.06;;;-9.65;67.85
43741;BME280;29352;48.708;9.290;2023-02-28T03:24:57;98435.31;;;-9.45;67.36
43741;BME280;29352;48.708;9.290;2023-02-28T03:27:30;98442.22;;;-9.46;67.28
43741;BME280;29352;48.708;9.290;2023-02-28T03:30:11;98448.03;;;-9.41;67.22
43741;BME280;29352;48.708;9.290;2023-02-28T03:32:57;98450.25;;;-9.17;66.97
43741;BME280;29352;48.708;9.290;2023-02-28T03:35:31;98430.13;;;-9.28;67.17
43741;BME280;29352;48.708;9.290;2023-02-28T03:38:16;98441.84;;;-9.56;67.67
43741;BME280;29352;48.708;9.290;2023-02-28T03:40:51;98437.06;;;-9.46;68.13
43741;BME280;29352;48.708;9.290;2023-02-28T03:43:32;98429.38;;;-9.30;67.70
43741;BME280;29352;48.708;9.290;2023-02-28T03:46:08;98434.16;;;-9.22;67.12
43741;BME280;29352;48.708;9.290;2023-02-28T03:48:40;98437.34;;;-9.52;67.62
43741;BME280;29352;48.708;9.290;2023-02-28T03:51:15;98435.44;;;-9.31;67.79
43741;BME280;29352;48.708;9.290;2023-02-28T03:53:53;98435.84;;;-9.39;67.86
43741;BME280;29352;48.708;9.290;2023-02-28T03:56:37;98433.41;;;-9.42;67.95
43741;BME280;29352;48.708;9.290;2023-02-28T03:59:15;98433.72;;;-9.31;67.63
43741;BME280;29352;48.708;9.290;2023-02-28T04:02:18;98435.00;;;-9.39;68.25
43741;BME280;29352;48.708;9.290;2023-02-28T04:04:43;98436.06;;;-9.26;67.76
43741;BME280;29352;48.708;9.290;2023-02-28T04:07:13;98434.47;;;-8.95;66.85
43741;BME280;29352;48.708;9.290;2023-02-28T04:09:40;98440.28;;;-9.08;66.90
43741;BME280;29352;48.708;9.290;2023-02-28T04:12:06;98443.97;;;-9.29;67.46
43741;BME280;29352;48.708;9.290;2023-02-28T04:14:32;98450.66;;;-9.25;67.60
43741;BME280;29352;48.708;9.290;2023-02-28T04:16:57;98441.53;;;-9.32;67.88
43741;BME280;29352;48.708;9.290;2023-02-28T04:19:23;98441.97;;;-9.24;68.34
43741;BME280;29352;48.708;9.290;2023-02-28T04:21:52;98447.22;;;-9.25;68.06
43741;BME280;29352;48.708;9.290;2023-02-28T04:24:26;98441.09;;;-9.40;68.56
43741;BME280;29352;48.708;9.290;2023-02-28T04:26:54;98433.91;;;-9.18;68.41
43741;BME280;29352;48.708;9.290;2023-02-28T04:29:24;98441.94;;;-9.40;68.55
43741;BME280;29352;48.708;9.290;2023-02-28T04:32:01;98426.16;;;-9.18;68.51
43741;BME280;29352;48.708;9.290;2023-02-28T04:34:28;98454.59;;;-9.18;68.41
43741;BME280;29352;48.708;9.290;2023-02-28T04:36:56;98440.69;;;-9.33;68.51
43741;BME280;29352;48.708;9.290;2023-02-28T04:39:22;98436.47;;;-9.34;69.09
43741;BME280;29352;48.708;9.290;2023-02-28T04:41:49;98431.16;;;-9.15;68.63
43741;BME280;29352;48.708;9.290;2023-02-28T04:44:16;98433.41;;;-9.42;68.68
43741;BME280;29352;48.708;9.290;2023-02-28T04:46:43;98427.25;;;-9.39;69.33
43741;BME280;29352;48.708;9.290;2023-02-28T04:49:12;98436.06;;;-9.26;69.13
43741;BME280;29352;48.708;9.290;2023-02-28T04:51:38;98438.09;;;-9.15;68.59
43741;BME280;29352;48.708;9.290;2023-02-28T04:54:04;98436.50;;;-9.35;69.21
43741;BME280;29352;48.708;9.290;2023-02-28T04:56:30;98437.19;;;-9.32;68.94
43741;BME280;29352;48.708;9.290;2023-02-28T04:58:55;98443.97;;;-9.29;69.11
43741;BME280;29352;48.708;9.290;2023-02-28T05:03:53;98437.09;;;-9.13;68.80
43741;BME280;29352;48.708;9.290;2023-02-28T05:06:21;98437.56;;;-9.22;68.90
43741;BME280;29352;48.708;9.290;2023-02-28T05:08:49;98446.13;;;-9.37;69.67
43741;BME280;29352;48.708;9.290;2023-02-28T05:11:18;98438.63;;;-9.09;68.63
43741;BME280;29352;48.708;9.290;2023-02-28T05:13:47;98446.19;;;-9.39;69.47
43741;BME280;29352;48.708;9.290;2023-02-28T05:16:14;98434.78;;;-9.52;70.25
43741;BME280;29352;48.708;9.290;2023-02-28T05:18:40;98437.97;;;-9.47;69.97
43741;BME280;29352;48.708;9.290;2023-02-28T05:23:54;98447.44;;;-9.13;68.62
43741;BME280;29352;48.708;9.290;2023-02-28T05:26:22;98444.88;;;-9.13;68.44
43741;BME280;29352;48.708;9.290;2023-02-28T05:28:48;98447.13;;;-9.24;69.01
43741;BME280;29352;48.708;9.290;2023-02-28T05:31:14;98456.78;;;-9.10;68.95
43741;BME280;29352;48.708;9.290;2023-02-28T05:33:40;98452.59;;;-8.95;68.12
43741;BME280;29352;48.708;9.290;2023-02-28T05:36:06;98443.66;;;-8.90;67.84
43741;BME280;29352;48.708;9.290;2023-02-28T05:38:32;98449.97;;;-8.78;68.18
43741;BME280;29352;48.708;9.290;2023-02-28T05:40:58;98445.69;;;-9.12;68.95
43741;BME280;29352;48.708;9.290;2023-02-28T05:43:23;98449.50;;;-9.19;68.95
43741;BME280;29352;48.708;9.290;2023-02-28T05:45:49;98459.69;;;-8.99;68.71
43741;BME280;29352;48.708;9.290;2023-02-28T05:48:15;98450.84;;;-8.95;68.83
43741;BME280;29352;48.708;9.290;2023-02-28T05:50:40;98455.56;;;-8.70;67.78
43741;BME280;29352;48.708;9.290;2023-02-28T05:53:07;98449.34;;;-8.83;68.02
43741;BME280;29352;48.708;9.290;2023-02-28T05:55:33;98456.31;;;-8.68;67.67
43741;BME280;29352;48.708;9.290;2023-02-28T05:58:01;98465.19;;;-8.89;68.34
43741;BME280;29352;48.708;9.290;2023-02-28T06:00:26;98460.88;;;-8.73;67.88
43741;BME280;29352;48.708;9.290;2023-02-28T06:02:53;98464.56;;;-8.77;67.95
43741;BME280;29352;48.708;9.290;2023-02-28T06:05:21;98458.91;;;-9.01;68.78
43741;BME280;29352;48.708;9.290;2023-02-28T06:07:47;98464.66;;;-8.78;67.90
43741;BME280;29352;48.708;9.290;2023-02-28T06:10:13;98460.41;;;-8.64;66.86
43741;BME280;29352;48.708;9.290;2023-02-28T06:12:40;98466.16;;;-9.08;68.47
43741;BME280;29352;48.708;9.290;2023-02-28T06:15:13;98457.50;;;-8.42;67.13
43741;BME280;29352;48.708;9.290;2023-02-28T06:17:44;98463.06;;;-8.81;68.06
43741;BME280;29352;48.708;9.290;2023-02-28T06:20:11;98466.38;;;-8.79;67.66
43741;BME280;29352;48.708;9.290;2023-02-28T06:22:39;98466.50;;;-8.65;67.38
43741;BME280;29352;48.708;9.290;2023-02-28T06:25:06;98468.69;;;-8.90;67.75
43741;BME280;29352;48.708;9.290;2023-02-28T06:27:33;98473.75;;;-8.71;67.15
43741;BME280;29352;48.708;9.290;2023-02-28T06:29:59;98497.28;;;-8.76;66.91
43741;BME280;29352;48.708;9.290;2023-02-28T06:32:25;98497.94;;;-8.39;66.03
43741;BME280;29352;48.708;9.290;2023-02-28T06:34:50;98488.34;;;-8.37;65.57
43741;BME280;29352;48.708;9.290;2023-02-28T06:37:17;98490.34;;;-8.26;65.96
43741;BME280;29352;48.708;9.290;2023-02-28T06:39:43;98500.50;;;-8.55;66.42
43741;BME280;29352;48.708;9.290;2023-02-28T06:42:09;98498.00;;;-8.57;67.07
43741;BME280;29352;48.708;9.290;2023-02-28T06:44:34;98487.13;;;-8.63;67.36
43741;BME280;29352;48.708;9.290;2023-02-28T06:47:02;98492.09;;;-8.76;67.15
43741;BME280;29352;48.708;9.290;2023-02-28T06:49:30;98493.66;;;-8.56;67.02
43741;BME280;29352;48.708;9.290;2023-02-28T06:51:58;98495.47;;;-8.58;66.29
43741;BME280;29352;48.708;9.290;2023-02-28T06:54:23;98494.84;;;-8.46;65.88
43741;BME280;29352;48.708;9.290;2023-02-28T06:56:49;98494.59;;;-8.57;66.16
43741;BME280;29352;48.708;9.290;2023-02-28T06:59:15;98499.00;;;-8.59;66.85
43741;BME280;29352;48.708;9.290;2023-02-28T07:01:41;98493.28;;;-8.32;65.61
43741;BME280;29352;48.708;9.290;2023-02-28T07:04:07;98504.94;;;-8.41;65.80
43741;BME280;29352;48.708;9.290;2023-02-28T07:06:32;98502.28;;;-8.24;65.38
43741;BME280;29352;48.708;9.290;2023-02-28T07:08:58;98510.16;;;-8.10;65.29
43741;BME280;29352;48.708;9.290;2023-02-28T07:11:26;98516.69;;;-8.02;64.60
43741;BME280;29352;48.708;9.290;2023-02-28T07:13:53;98506.47;;;-8.05;64.55
43741;BME280;29352;48.708;9.290;2023-02-28T07:16:21;98513.00;;;-8.14;64.73
43741;BME280;29352;48.708;9.290;2023-02-28T07:18:48;98518.69;;;-8.23;65.03
43741;BME280;29352;48.708;9.290;2023-02-28T07:21:14;98514.63;;;-8.45;66.11
43741;BME280;29352;48.708;9.290;2023-02-28T07:23:40;98514.81;;;-8.32;65.15
43741;BME280;29352;48.708;9.290;2023-02-28T07:26:11;98518.75;;;-7.93;64.10
43741;BME280;29352;48.708;9.290;2023-02-28T07:28:41;98514.34;;;-8.23;65.19
43741;BME280;29352;48.708;9.290;2023-02-28T07:31:09;98512.56;;;-8.38;65.33
43741;BME280;29352;48.708;9.290;2023-02-28T07:33:36;98519.66;;;-8.42;65.74
43741;BME280;29352;48.708;9.290;2023-02-28T07:36:04;98518.44;;;-8.19;64.65
43741;BME280;29352;48.708;9.290;2023-02-28T07:38:34;98517.16;;;-8.27;65.34
43741;BME280;29352;48.708;9.290;2023-02-28T07:41:01;98515.84;;;-8.19;65.23
43741;BME280;29352;48.708;9.290;2023-02-28T07:43:29;98510.41;;;-8.14;64.87
43741;BME280;29352;48.708;9.290;2023-02-28T07:46:10;98515.22;;;-8.40;64.89
43741;BME280;29352;48.708;9.290;2023-02-28T07:48:38;98520.56;;;-8.27;65.41
43741;BME280;29352;48.708;9.290;2023-02-28T07:51:04;98513.06;;;-7.84;65.19
43741;BME280;29352;48.708;9.290;2023-02-28T07:53:30;98513.75;;;-7.80;64.06
43741;BME280;29352;48.708;9.290;2023-02-28T07:55:57;98522.44;;;-7.97;64.13
43741;BME280;29352;48.708;9.290;2023-02-28T07:58:25;98517.91;;;-7.94;64.31
43741;BME280;29352;48.708;9.290;2023-02-28T08:00:51;98514.81;;;-8.32;64.92
43741;BME280;29352;48.708;9.290;2023-02-28T08:03:19;98537.56;;;-8.21;65.26
43741;BME280;29352;48.708;9.290;2023-02-28T08:05:46;98520.75;;;-8.30;65.43
43741;BME280;29352;48.708;9.290;2023-02-28T08:08:13;98527.84;;;-8.18;64.92
43741;BME280;29352;48.708;9.290;2023-02-28T08:10:39;98530.53;;;-8.03;65.02
43741;BME280;29352;48.708;9.290;2023-02-28T08:13:05;98536.56;;;-7.87;64.58
43741;BME280;29352;48.708;9.290;2023-02-28T08:15:31;98534.69;;;-8.17;65.68
43741;BME280;29352;48.708;9.290;2023-02-28T08:17:56;98549.75;;;-8.07;65.01
43741;BME280;29352;48.708;9.290;2023-02-28T08:20:23;98534.97;;;-7.74;63.65
43741;BME280;29352;48.708;9.290;2023-02-28T08:22:50;98534.13;;;-7.90;63.84
43741;BME280;29352;48.708;9.290;2023-02-28T08:25:16;98533.31;;;-7.91;65.04
43741;BME280;29352;48.708;9.290;2023-02-28T08:27:41;98535.69;;;-7.72;63.56
43741;BME280;29352;48.708;9.290;2023-02-28T08:30:09;98533.53;;;-7.79;63.55
43741;BME280;29352;48.708;9.290;2023-02-28T08:32:36;98531.19;;;-7.68;63.65
43741;BME280;29352;48.708;9.290;2023-02-28T08:35:02;98529.19;;;-7.79;63.93
43741;BME280;29352;48.708;9.290;2023-02-28T08:37:29;98543.97;;;-7.65;63.58
43741;BME280;29352;48.708;9.290;2023-02-28T08:39:54;98552.94;;;-7.71;63.28
43741;BME280;29352;48.708;9.290;2023-02-28T08:42:20;98532.53;;;-7.77;62.77
43741;BME280;29352;48.708;9.290;2023-02-28T08:44:45;98548.75;;;-7.57;62.27
43741;BME280;29352;48.708;9.290;2023-02-28T08:47:11;98535.63;;;-7.24;61.99
43741;BME280;29352;48.708;9.290;2023-02-28T08:49:37;98552.69;;;-7.66;62.71
43741;BME280;29352;48.708;9.290;2023-02-28T08:52:03;98545.41;;;-6.99;61.78
43741;BME280;29352;48.708;9.290;2023-02-28T08:54:28;98545.13;;;-7.39;62.88
43741;BME280;29352;48.708;9.290;2023-02-28T08:56:57;98546.13;;;-7.42;62.52
43741;BME280;29352;48.708;9.290;2023-02-28T08:59:22;98548.34;;;-7.66;62.59
43741;BME280;29352;48.708;9.290;2023-02-28T09:01:48;98549.69;;;-6.98;61.20
43741;BME280;29352;48.708;9.290;2023-02-28T09:04:13;98546.66;;;-7.67;62.81
43741;BME280;29352;48.708;9.290;2023-02-28T09:06:39;98545.72;;;-7.50;62.27
43741;BME280;29352;48.708;9.290;2023-02-28T09:09:05;98549.66;;;-7.43;62.69
43741;BME280;29352;48.708;9.290;2023-02-28T09:11:33;98557.84;;;-7.04;62.54
43741;BME280;29352;48.708;9.290;2023-02-28T09:14:00;98548.44;;;-7.37;63.22
43741;BME280;29352;48.708;9.290;2023-02-28T09:16:28;98547.41;;;-7.19;62.42
43741;BME280;29352;48.708;9.290;2023-02-28T09:18:54;98555.03;;;-7.16;61.53
43741;BME280;29352;48.708;9.290;2023-02-28T09:21:20;98563.06;;;-6.76;60.92
43741;BME280;29352;48.708;9.290;2023-02-28T09:23:47;98557.72;;;-6.58;60.25
43741;BME280;29352;48.708;9.290;2023-02-28T09:26:17;98558.03;;;-6.93;61.63
43741;BME280;29352;48.708;9.290;2023-02-28T09:28:44;98564.50;;;-6.56;60.81
43741;BME280;29352;48.708;9.290;2023-02-28T09:31:16;98558.06;;;-6.64;60.84
43741;BME280;29352;48.708;9.290;2023-02-28T09:33:52;98567.09;;;-6.42;60.26
43741;BME280;29352;48.708;9.290;2023-02-28T09:36:21;98558.28;;;-6.39;60.08
43741;BME280;29352;48.708;9.290;2023-02-28T09:38:48;98562.91;;;-6.58;60.64
43741;BME280;29352;48.708;9.290;2023-02-28T09:41:20;98571.19;;;-6.52;60.68
43741;BME280;29352;48.708;9.290;2023-02-28T09:43:58;98569.84;;;-6.73;60.31
43741;BME280;29352;48.708;9.290;2023-02-28T09:46:38;98578.22;;;-6.11;59.04
43741;BME280;29352;48.708;9.290;2023-02-28T09:49:14;98572.00;;;-6.23;59.15
43741;BME280;29352;48.708;9.290;2023-02-28T09:54:32;98586.28;;;-6.58;59.15
43741;BME280;29352;48.708;9.290;2023-02-28T09:57:08;98574.81;;;-6.26;58.94
43741;BME280;29352;48.708;9.290;2023-02-28T10:00:07;98567.63;;;-6.36;58.77
43741;BME280;29352;48.708;9.290;2023-02-28T10:02:52;98572.94;;;-6.38;58.36
43741;BME280;29352;48.708;9.290;2023-02-28T10:05:52;98568.03;;;-6.43;58.57
43741;BME280;29352;48.708;9.290;2023-02-28T10:08:39;98589.47;;;-6.10;58.11
43741;BME280;29352;48.708;9.290;2023-02-28T10:11:14;98583.44;;;-6.25;58.04
43741;BME280;29352;48.708;9.290;2023-02-28T10:13:58;98582.38;;;-5.80;57.33
43741;BME280;29352;48.708;9.290;2023-02-28T10:19:33;98589.53;;;-6.26;58.38
43741;BME280;29352;48.708;9.290;2023-02-28T10:24:51;98599.78;;;-5.67;56.93
43741;BME280;29352;48.708;9.290;2023-02-28T10:27:20;98616.75;;;-6.03;57.28
43741;BME280;29352;48.708;9.290;2023-02-28T10:29:54;98611.25;;;-5.84;56.89
43741;BME280;29352;48.708;9.290;2023-02-28T10:35:13;98599.34;;;-5.60;56.34
43741;BME280;29352;48.708;9.290;2023-02-28T10:37:54;98613.59;;;-5.94;57.56
43741;BME280;29352;48.708;9.290;2023-02-28T10:42:57;98600.06;;;-5.31;56.38
43741;BME280;29352;48.708;9.290;2023-02-28T10:45:25;98593.78;;;-5.41;56.20
43741;BME280;29352;48.708;9.290;2023-02-28T10:47:59;98589.59;;;-5.43;55.84
43741;BME280;29352;48.708;9.290;2023-02-28T10:51:14;98586.16;;;-5.17;56.69
43741;BME280;29352;48.708;9.290;2023-02-28T10:53:30;98584.75;;;-5.08;56.56
43741;BME280;29352;48.708;9.290;2023-02-28T10:56:00;98596.19;;;-4.98;55.58
43741;BME280;29352;48.708;9.290;2023-02-28T11:01:37;98578.66;;;-5.21;57.18
43741;BME280;29352;48.708;9.290;2023-02-28T11:04:34;98578.84;;;-4.85;55.97
43741;BME280;29352;48.708;9.290;2023-02-28T11:07:22;98579.59;;;-4.70;54.99
43741;BME280;29352;48.708;9.290;2023-02-28T11:09:57;98574.19;;;-4.41;53.52
43741;BME280;29352;48.708;9.290;2023-02-28T11:12:36;98579.50;;;-5.21;56.74
43741;BME280;29352;48.708;9.290;2023-02-28T11:15:23;98579.19;;;-4.00;54.46
43741;BME280;29352;48.708;9.290;2023-02-28T11:18:20;98582.47;;;-3.72;53.92
43741;BME280;29352;48.708;9.290;2023-02-28T11:20:54;98568.47;;;-3.23;52.44
43741;BME280;29352;48.708;9.290;2023-02-28T11:23:26;98578.19;;;-3.25;53.11
43741;BME280;29352;48.708;9.290;2023-02-28T11:25:59;98570.34;;;-2.55;52.66
43741;BME280;29352;48.708;9.290;2023-02-28T11:28:41;98574.47;;;-3.10;51.99
43741;BME280;29352;48.708;9.290;2023-02-28T11:33:55;98566.91;;;-4.49;54.05
43741;BME280;29352;48.708;9.290;2023-02-28T11:36:31;98558.59;;;-3.31;53.55
43741;BME280;29352;48.708;9.290;2023-02-28T11:39:10;98560.81;;;-2.67;52.94
43741;BME280;29352;48.708;9.290;2023-02-28T11:41:48;98553.50;;;-2.17;50.68
43741;BME280;29352;48.708;9.290;2023-02-28T11:47:47;98552.28;;;-2.24;50.62
43741;BME280;29352;48.708;9.290;2023-02-28T12:05:06;98521.13;;;-1.82;49.83
43741;BME280;29352;48.708;9.290;2023-02-28T12:10:29;98534.81;;;-1.35;49.40
43741;BME280;29352;48.708;9.290;2023-02-28T12:13:30;98520.25;;;-1.28;50.35
43741;BME280;29352;48.708;9.290;2023-02-28T12:27:44;98524.50;;;-1.48;49.06
43741;BME280;29352;48.708;9.290;2023-02-28T12:30:13;98525.94;;;-1.44;49.25
43741;BME280;29352;48.708;9.290;2023-02-28T12:33:16;98518.94;;;-1.66;49.67
43741;BME280;29352;48.708;9.290;2023-02-28T12:35:54;98519.44;;;-1.61;50.08
43741;BME280;29352;48.708;9.290;2023-02-28T12:38:28;98517.06;;;-1.86;50.11
43741;BME280;29352;48.708;9.290;2023-02-28T12:41:18;98515.38;;;-1.54;49.35
43741;BME280;29352;48.708;9.290;2023-02-28T12:44:11;98520.38;;;-1.62;50.19
43741;BME280;29352;48.708;9.290;2023-02-28T12:46:54;98508.34;;;-1.64;50.44
43741;BME280;29352;48.708;9.290;2023-02-28T12:49:53;98508.13;;;-1.29;49.22
43741;BME280;29352;48.708;9.290;2023-02-28T12:52:35;98505.03;;;-1.34;50.54
43741;BME280;29352;48.708;9.290;2023-02-28T12:58:28;98492.34;;;-1.18;49.78
43741;BME280;29352;48.708;9.290;2023-02-28T13:07:00;98496.50;;;-0.95;49.44
43741;BME280;29352;48.708;9.290;2023-02-28T13:09:59;98486.84;;;-0.73;48.98
43741;BME280;29352;48.708;9.290;2023-02-28T13:12:28;98492.09;;;-0.94;49.69
43741;BME280;29352;48.708;9.290;2023-02-28T13:15:26;98509.25;;;-1.43;49.09
43741;BME280;29352;48.708;9.290;2023-02-28T13:17:57;98492.84;;;-1.24;48.76
43741;BME280;29352;48.708;9.290;2023-02-28T13:20:35;98490.97;;;-2.31;50.80
43741;BME280;29352;48.708;9.290;2023-02-28T13:24:36;98481.78;;;-1.49;50.25
43741;BME280;29352;48.708;9.290;2023-02-28T13:34:27;98471.44;;;-0.66;48.82
43741;BME280;29352;48.708;9.290;2023-02-28T13:39:50;98457.56;;;-0.07;49.26
43741;BME280;29352;48.708;9.290;2023-02-28T13:42:32;98455.19;;;-0.10;50.03
43741;BME280;29352;48.708;9.290;2023-02-28T13:47:45;98475.31;;;-0.20;49.66
43741;BME280;29352;48.708;9.290;2023-02-28T14:01:46;98475.94;;;0.03;47.34
43741;BME280;29352;48.708;9.290;2023-02-28T14:05:09;98462.22;;;-0.61;48.86
43741;BME280;29352;48.708;9.290;2023-02-28T14:07:40;98462.91;;;-0.18;49.44
43741;BME280;29352;48.708;9.290;2023-02-28T14:18:24;98478.66;;;-0.18;47.48
43741;BME280;29352;48.708;9.290;2023-02-28T14:20:58;98455.91;;;-0.79;49.40
43741;BME280;29352;48.708;9.290;2023-02-28T14:26:28;98462.22;;;-0.61;48.98
43741;BME280;29352;48.708;9.290;2023-02-28T14:31:35;98470.03;;;-0.40;49.85
43741;BME280;29352;48.708;9.290;2023-02-28T14:34:31;98470.88;;;-0.91;49.37
43741;BME280;29352;48.708;9.290;2023-02-28T14:37:05;98470.50;;;-0.56;49.73
43741;BME280;29352;48.708;9.290;2023-02-28T14:39:43;98469.56;;;-0.76;49.00
43741;BME280;29352;48.708;9.290;2023-02-28T14:44:58;98478.03;;;-0.93;50.29
43741;BME280;29352;48.708;9.290;2023-02-28T14:47:31;98482.47;;;-0.63;49.07
43741;BME280;29352;48.708;9.290;2023-02-28T14:50:01;98478.41;;;-1.72;49.64
43741;BME280;29352;48.708;9.290;2023-02-28T14:52:31;98478.25;;;-1.59;50.66
43741;BME280;29352;48.708;9.290;2023-02-28T14:55:05;98476.75;;;-1.40;50.37
43741;BME280;29352;48.708;9.290;2023-02-28T14:57:51;98475.94;;;-1.20;50.91
43741;BME280;29352;48.708;9.290;2023-02-28T15:00:27;98468.41;;;-1.78;52.05
43741;BME280;29352;48.708;9.290;2023-02-28T15:02:56;98495.53;;;-1.35;50.09
43741;BME280;29352;48.708;9.290;2023-02-28T15:05:32;98481.75;;;-1.16;49.19
43741;BME280;29352;48.708;9.290;2023-02-28T15:10:41;98487.75;;;-1.69;50.90
43741;BME280;29352;48.708;9.290;2023-02-28T15:13:14;98490.50;;;-1.71;49.88
43741;BME280;29352;48.708;9.290;2023-02-28T15:21:11;98491.41;;;-2.04;51.60
43741;BME280;29352;48.708;9.290;2023-02-28T15:23:45;98507.75;;;-1.57;50.55
43741;BME280;29352;48.708;9.290;2023-02-28T15:26:19;98502.06;;;-1.73;50.68
43741;BME280;29352;48.708;9.290;2023-02-28T15:29:00;98512.09;;;-1.90;50.50
43741;BME280;29352;48.708;9.290;2023-02-28T15:31:47;98508.44;;;-2.54;51.93
43741;BME280;29352;48.708;9.290;2023-02-28T15:34:22;98502.88;;;-2.27;51.81
43741;BME280;29352;48.708;9.290;2023-02-28T15:37:01;98492.59;;;-1.97;51.11
43741;BME280;29352;48.708;9.290;2023-02-28T15:39:41;98497.38;;;-2.24;51.26
43741;BME280;29352;48.708;9.290;2023-02-28T15:42:29;98500.97;;;-2.37;51.27
43741;BME280;29352;48.708;9.290;2023-02-28T15:44:55;98499.16;;;-2.02;51.32
43741;BME280;29352;48.708;9.290;2023-02-28T15:47:24;98502.59;;;-2.24;52.60
43741;BME280;29352;48.708;9.290;2023-02-28T15:49:59;98497.63;;;-2.16;52.08
43741;BME280;29352;48.708;9.290;2023-02-28T15:55:22;98499.75;;;-1.99;50.54